Time;durP1;ratioP1;P1;durP2;ratioP2;P2;SDS_P1;SDS_P2;PMS_P1;PMS_P2;Temp;Humidity;BMP_temperature;BMP_pressure;BME280_temperature;BME280_humidity;BME280_pressure;Samples;Min_cycle;Max_cycle;Signal;HPM_P1;HPM_P2
2022/07/28 00:00:29;;;;;;;;;;;15.80;99.90;;;;;;5009206;28;19932;-75
2022/07/28 00:02:56;;;;;;;;;;;15.80;99.90;;;;;;5022885;28;19972;-75
2022/07/28 00:05:22;;;;;;;;;;;15.70;99.90;;;;;;4996856;28;19948;-75
2022/07/28 00:07:49;;;;;;;;;;;15.70;99.90;;;;;;5027186;28;19929;-75
2022/07/28 00:10:16;;;;;;;;;;;15.70;99.90;;;;;;5006630;28;19926;-75
2022/07/28 00:12:43;;;;;;;;;;;15.60;99.90;;;;;;5012034;28;19925;-75
2022/07/28 00:15:10;;;;;;;;;;;15.60;99.90;;;;;;5017951;28;19930;-75
2022/07/28 00:17:39;;;;;;;;;;;15.60;99.90;;;;;;5010319;28;20401;-75
2022/07/28 00:20:06;;;;;;;;;;;15.60;99.90;;;;;;5020865;28;19933;-75
2022/07/28 00:22:33;;;;;;;;;;;15.50;99.90;;;;;;5018148;28;19972;-75
2022/07/28 00:25:00;;;;;;;;;;;15.50;99.90;;;;;;5024890;28;19940;-75
2022/07/28 00:27:27;;;;;;;;;;;15.40;99.90;;;;;;5014281;28;20360;-75
2022/07/28 00:29:54;;;;;;;;;;;15.40;99.90;;;;;;5011449;28;19925;-75
2022/07/28 00:32:21;;;;;;;;;;;15.40;99.90;;;;;;5007758;28;19925;-75
2022/07/28 00:34:49;;;;;;;;;;;15.30;99.90;;;;;;5020661;28;19988;-75
2022/07/28 00:37:16;;;;;;;;;;;15.40;99.90;;;;;;5026314;28;19926;-75
2022/07/28 00:39:43;;;;;;;;;;;15.30;99.90;;;;;;5022104;28;19995;-75
2022/07/28 00:42:11;;;;;;;;;;;15.40;99.90;;;;;;5021495;28;19933;-75
2022/07/28 00:44:40;;;;;;;;;;;15.40;99.90;;;;;;5017373;28;20393;-75
2022/07/28 00:47:07;;;;;;;;;;;15.40;99.90;;;;;;5025260;28;19930;-75
2022/07/28 00:49:34;;;;;;;;;;;15.50;99.90;;;;;;5020022;28;20328;-75
2022/07/28 00:52:02;;;;;;;;;;;15.40;99.90;;;;;;5027810;28;19933;-75
2022/07/28 00:54:29;;;;;;;;;;;15.40;99.90;;;;;;5024343;28;19956;-75
2022/07/28 00:56:56;;;;;;;;;;;15.40;99.90;;;;;;5008598;28;19926;-75
2022/07/28 00:59:22;;;;;;;;;;;15.40;99.90;;;;;;5026227;28;19988;-75
2022/07/28 01:01:49;;;;;;;;;;;15.40;99.90;;;;;;5020222;28;19933;-75
2022/07/28 01:04:17;;;;;;;;;;;15.40;99.90;;;;;;5026330;28;19925;-75
2022/07/28 01:06:49;;;;;;;;;;;15.40;99.90;;;;;;5020060;28;20397;-75
2022/07/28 01:09:25;;;;;;;;;;;15.50;99.90;;;;;;5007395;28;19973;-75
2022/07/28 01:11:55;;;;;;;;;;;15.50;99.90;;;;;;5017556;28;19929;-75
2022/07/28 01:14:24;;;;;;;;;;;15.50;99.90;;;;;;5020863;28;20393;-75
2022/07/28 01:16:55;;;;;;;;;;;15.50;99.90;;;;;;5022389;28;19925;-75
2022/07/28 01:19:35;;;;;;;;;;;15.50;99.90;;;;;;5019985;28;19925;-75
2022/07/28 01:22:02;;;;;;;;;;;15.50;99.90;;;;;;5018928;28;19926;-75
2022/07/28 01:24:33;;;;;;;;;;;15.40;99.90;;;;;;5002298;28;19929;-75
2022/07/28 01:27:02;;;;;;;;;;;15.40;99.90;;;;;;5015742;28;19931;-75
2022/07/28 01:29:36;;;;;;;;;;;15.30;99.90;;;;;;5022919;28;19926;-75
2022/07/28 01:32:05;;;;;;;;;;;15.30;99.90;;;;;;5024623;28;19925;-75
2022/07/28 01:34:34;;;;;;;;;;;15.30;99.90;;;;;;5017338;28;19926;-75
2022/07/28 01:37:05;;;;;;;;;;;15.30;99.90;;;;;;5019298;28;20340;-75
2022/07/28 01:39:34;;;;;;;;;;;15.30;99.90;;;;;;5019210;28;19972;-75
2022/07/28 01:42:02;;;;;;;;;;;15.30;99.90;;;;;;5023517;28;19925;-75
2022/07/28 01:44:29;;;;;;;;;;;15.20;99.90;;;;;;5019751;28;19975;-75
2022/07/28 01:46:57;;;;;;;;;;;15.30;99.90;;;;;;5026530;28;19932;-75
2022/07/28 01:49:26;;;;;;;;;;;15.30;99.90;;;;;;5018988;28;19926;-75
2022/07/28 01:51:54;;;;;;;;;;;15.30;99.90;;;;;;5003709;28;19933;-75
2022/07/28 01:54:23;;;;;;;;;;;15.30;99.90;;;;;;5022287;28;19932;-75
2022/07/28 01:56:51;;;;;;;;;;;15.20;99.90;;;;;;5021783;28;19925;-75
2022/07/28 01:59:19;;;;;;;;;;;15.30;99.90;;;;;;5024576;28;19999;-75
2022/07/28 02:01:46;;;;;;;;;;;15.30;99.90;;;;;;5021082;28;19929;-74
2022/07/28 02:04:15;;;;;;;;;;;15.30;99.90;;;;;;5019053;28;19925;-75
2022/07/28 02:06:43;;;;;;;;;;;15.30;99.90;;;;;;5018766;28;19932;-75
2022/07/28 02:09:11;;;;;;;;;;;15.20;99.90;;;;;;5011924;28;19930;-75
2022/07/28 02:11:40;;;;;;;;;;;15.20;99.90;;;;;;4999418;28;19929;-75
2022/07/28 02:14:09;;;;;;;;;;;15.10;99.90;;;;;;5018318;28;20337;-75
2022/07/28 02:16:36;;;;;;;;;;;15.10;99.90;;;;;;5019117;28;20308;-75
2022/07/28 02:19:03;;;;;;;;;;;15.10;99.90;;;;;;5002199;28;19929;-75
2022/07/28 02:21:31;;;;;;;;;;;15.10;99.90;;;;;;5014105;28;19961;-75
2022/07/28 02:23:59;;;;;;;;;;;15.00;99.90;;;;;;5017266;28;19976;-75
2022/07/28 02:26:28;;;;;;;;;;;15.00;99.90;;;;;;5014149;28;19930;-75
2022/07/28 02:28:57;;;;;;;;;;;15.00;99.90;;;;;;5010983;28;19925;-75
2022/07/28 02:31:25;;;;;;;;;;;14.90;99.90;;;;;;5019194;28;19925;-75
2022/07/28 02:33:54;;;;;;;;;;;14.90;99.90;;;;;;5021558;28;19925;-75
2022/07/28 02:36:26;;;;;;;;;;;14.90;99.90;;;;;;5015602;28;19925;-75
2022/07/28 02:38:54;;;;;;;;;;;14.80;99.90;;;;;;5006995;28;19941;-75
2022/07/28 02:41:26;;;;;;;;;;;14.80;99.90;;;;;;5020892;28;19932;-75
2022/07/28 02:43:54;;;;;;;;;;;14.80;99.90;;;;;;5006233;28;19995;-75
2022/07/28 02:46:25;;;;;;;;;;;14.70;99.90;;;;;;5022848;28;19933;-75
2022/07/28 02:48:54;;;;;;;;;;;14.70;99.90;;;;;;5006861;28;19933;-75
2022/07/28 02:51:21;;;;;;;;;;;14.70;99.90;;;;;;5014666;28;20360;-75
2022/07/28 02:53:49;;;;;;;;;;;14.50;99.90;;;;;;5009031;28;19983;-75
2022/07/28 02:56:16;;;;;;;;;;;14.40;99.90;;;;;;5015641;28;19926;-75
2022/07/28 02:58:45;;;;;;;;;;;14.40;99.90;;;;;;5006458;28;19926;-75
2022/07/28 03:01:12;;;;;;;;;;;14.30;99.90;;;;;;5019287;28;20358;-75
2022/07/28 03:03:39;;;;;;;;;;;14.20;99.90;;;;;;5027159;28;19930;-75
2022/07/28 03:06:06;;;;;;;;;;;14.10;99.90;;;;;;5020555;28;19930;-75
2022/07/28 03:08:33;;;;;;;;;;;14.10;99.90;;;;;;5025052;28;20336;-75
2022/07/28 03:11:06;;;;;;;;;;;14.00;99.90;;;;;;5018247;28;19933;-75
2022/07/28 03:13:33;;;;;;;;;;;13.90;99.90;;;;;;5019604;28;20393;-75
2022/07/28 03:16:02;;;;;;;;;;;13.90;99.90;;;;;;5029678;28;20007;-75
2022/07/28 03:18:28;;;;;;;;;;;13.80;99.90;;;;;;5019011;28;20359;-74
2022/07/28 03:20:56;;;;;;;;;;;13.80;99.90;;;;;;5019474;28;19926;-75
2022/07/28 03:23:24;;;;;;;;;;;13.80;99.90;;;;;;5022304;28;19933;-75
2022/07/28 03:25:51;;;;;;;;;;;13.80;99.90;;;;;;5021906;28;19925;-75
2022/07/28 03:28:20;;;;;;;;;;;13.80;99.90;;;;;;5020021;28;19929;-75
2022/07/28 03:30:48;;;;;;;;;;;13.90;99.90;;;;;;5021942;28;19941;-75
2022/07/28 03:33:16;;;;;;;;;;;13.80;99.90;;;;;;5026341;28;19965;-75
2022/07/28 03:35:44;;;;;;;;;;;13.80;99.90;;;;;;5021590;28;19933;-75
2022/07/28 03:38:13;;;;;;;;;;;13.70;99.90;;;;;;5004888;28;19926;-75
2022/07/28 03:40:40;;;;;;;;;;;13.60;99.90;;;;;;5004883;28;19933;-75
2022/07/28 03:43:09;;;;;;;;;;;13.60;99.90;;;;;;5020140;28;19926;-75
2022/07/28 03:45:36;;;;;;;;;;;13.80;99.90;;;;;;5018915;28;19976;-75
2022/07/28 03:48:03;;;;;;;;;;;13.80;99.90;;;;;;5016698;28;20279;-74
2022/07/28 03:50:32;;;;;;;;;;;13.80;99.90;;;;;;5025968;28;20384;-75
2022/07/28 03:53:01;;;;;;;;;;;13.90;99.90;;;;;;5004462;28;19934;-75
2022/07/28 03:55:28;;;;;;;;;;;14.00;99.90;;;;;;5019861;28;19977;-75
2022/07/28 03:57:55;;;;;;;;;;;14.00;99.90;;;;;;5023460;28;20348;-75
2022/07/28 04:00:24;;;;;;;;;;;14.00;99.90;;;;;;5019409;28;20029;-75
2022/07/28 04:02:51;;;;;;;;;;;14.10;99.90;;;;;;5005109;28;19930;-75
2022/07/28 04:05:18;;;;;;;;;;;14.10;99.90;;;;;;5007923;28;19929;-74
2022/07/28 04:07:46;;;;;;;;;;;14.10;99.90;;;;;;5027947;28;19925;-75
2022/07/28 04:10:14;;;;;;;;;;;14.10;99.90;;;;;;5023127;28;19933;-75
2022/07/28 04:12:44;;;;;;;;;;;14.10;99.90;;;;;;5021223;28;19933;-75
2022/07/28 04:15:12;;;;;;;;;;;14.10;99.90;;;;;;5026614;28;19926;-75
2022/07/28 04:17:39;;;;;;;;;;;14.00;99.90;;;;;;5009447;28;19934;-75
2022/07/28 04:20:07;;;;;;;;;;;14.00;99.90;;;;;;5009633;28;19929;-75
2022/07/28 04:22:33;;;;;;;;;;;14.00;99.90;;;;;;5021211;28;19988;-75
2022/07/28 04:25:02;;;;;;;;;;;14.00;99.90;;;;;;5012310;28;19925;-75
2022/07/28 04:27:29;;;;;;;;;;;14.00;99.90;;;;;;5020265;28;19929;-75
2022/07/28 04:29:55;;;;;;;;;;;14.00;99.90;;;;;;5018626;28;19970;-75
2022/07/28 04:32:22;;;;;;;;;;;14.00;99.90;;;;;;5020536;28;19925;-75
2022/07/28 04:34:49;;;;;;;;;;;14.00;99.90;;;;;;4998128;28;19964;-75
2022/07/28 04:37:16;;;;;;;;;;;14.10;99.90;;;;;;5026661;28;20429;-75
2022/07/28 04:39:43;;;;;;;;;;;14.10;99.90;;;;;;5015220;28;20409;-75
2022/07/28 04:42:11;;;;;;;;;;;14.10;99.90;;;;;;5017996;28;19934;-75
2022/07/28 04:44:41;;;;;;;;;;;14.10;99.90;;;;;;5016173;28;20493;-75
2022/07/28 04:47:08;;;;;;;;;;;14.10;99.90;;;;;;5021462;28;19933;-75
2022/07/28 04:49:34;;;;;;;;;;;14.20;99.90;;;;;;5019923;28;19933;-75
2022/07/28 04:52:02;;;;;;;;;;;14.20;99.90;;;;;;5022959;28;19933;-77
2022/07/28 04:54:29;;;;;;;;;;;14.30;99.90;;;;;;5028547;28;19932;-76
2022/07/28 04:56:55;;;;;;;;;;;14.30;99.90;;;;;;5016054;28;20385;-76
2022/07/28 04:59:24;;;;;;;;;;;14.30;99.90;;;;;;5020897;28;19949;-76
2022/07/28 05:01:51;;;;;;;;;;;14.40;99.90;;;;;;5002762;28;20020;-76
2022/07/28 05:04:17;;;;;;;;;;;14.60;99.90;;;;;;5000263;28;19926;-76
2022/07/28 05:06:44;;;;;;;;;;;14.60;99.90;;;;;;5010314;28;19980;-76
2022/07/28 05:09:11;;;;;;;;;;;14.70;99.90;;;;;;5015512;28;19932;-76
2022/07/28 05:11:38;;;;;;;;;;;14.80;99.90;;;;;;5018495;28;19926;-76
2022/07/28 05:14:05;;;;;;;;;;;14.80;99.90;;;;;;5024807;28;19926;-77
2022/07/28 05:16:33;;;;;;;;;;;14.90;99.90;;;;;;5020006;28;19941;-76
2022/07/28 05:19:00;;;;;;;;;;;15.00;99.90;;;;;;5000934;28;19925;-76
2022/07/28 05:21:26;;;;;;;;;;;15.20;99.90;;;;;;5021888;28;19925;-76
2022/07/28 05:23:53;;;;;;;;;;;15.30;99.90;;;;;;5022227;28;20290;-76
2022/07/28 05:26:20;;;;;;;;;;;15.30;99.90;;;;;;5010841;28;19929;-74
2022/07/28 05:28:47;;;;;;;;;;;15.30;99.90;;;;;;4997263;28;19933;-74
2022/07/28 05:31:14;;;;;;;;;;;15.30;99.90;;;;;;5013978;28;20381;-73
2022/07/28 05:33:42;;;;;;;;;;;15.30;99.90;;;;;;5010434;28;19972;-74
2022/07/28 05:36:11;;;;;;;;;;;15.20;99.90;;;;;;5012509;28;19925;-73
2022/07/28 05:38:38;;;;;;;;;;;15.10;99.90;;;;;;4995131;28;19926;-74
2022/07/28 05:41:05;;;;;;;;;;;15.00;99.90;;;;;;5013047;28;19926;-74
2022/07/28 05:43:32;;;;;;;;;;;15.00;99.90;;;;;;4993402;28;20392;-73
2022/07/28 05:45:59;;;;;;;;;;;15.00;99.90;;;;;;5008432;28;20027;-74
2022/07/28 05:48:26;;;;;;;;;;;15.00;99.90;;;;;;5018995;28;19940;-74
2022/07/28 05:50:54;;;;;;;;;;;15.00;99.90;;;;;;5014624;28;20305;-74
2022/07/28 05:53:21;;;;;;;;;;;15.00;99.90;;;;;;5000188;28;19945;-74
2022/07/28 05:55:49;;;;;;;;;;;14.90;99.90;;;;;;5023249;28;19931;-70
2022/07/28 05:58:16;;;;;;;;;;;15.00;99.90;;;;;;4997160;28;20393;-74
2022/07/28 06:00:43;;;;;;;;;;;15.00;99.90;;;;;;5011930;28;20405;-74
2022/07/28 06:03:10;;;;;;;;;;;15.00;99.90;;;;;;5014502;28;19931;-74
2022/07/28 06:05:37;;;;;;;;;;;15.20;99.90;;;;;;5015481;28;19936;-74
2022/07/28 06:08:05;;;;;;;;;;;15.20;99.90;;;;;;5003599;28;19932;-73
2022/07/28 06:13:14;;;;;;;;;;;15.30;99.90;;;;;;5020148;28;19961;-73
2022/07/28 06:15:40;;;;;;;;;;;15.30;99.90;;;;;;5006638;28;19930;-73
2022/07/28 06:18:07;;;;;;;;;;;15.40;99.90;;;;;;5024111;28;19953;-72
2022/07/28 06:20:34;;;;;;;;;;;15.50;99.90;;;;;;5015537;28;19926;-73
2022/07/28 06:23:01;;;;;;;;;;;15.60;99.90;;;;;;5019206;28;19933;-73
2022/07/28 06:25:30;;;;;;;;;;;15.70;99.90;;;;;;5023696;28;19926;-72
2022/07/28 06:27:57;;;;;;;;;;;15.90;99.90;;;;;;5018682;28;19929;-72
2022/07/28 06:30:25;;;;;;;;;;;15.90;99.90;;;;;;5020419;28;20397;-74
2022/07/28 06:32:51;;;;;;;;;;;16.00;99.90;;;;;;5003537;28;19978;-73
2022/07/28 06:35:18;;;;;;;;;;;16.00;99.90;;;;;;5027735;28;19933;-74
2022/07/28 06:37:46;;;;;;;;;;;16.10;99.90;;;;;;5014680;28;19926;-74
2022/07/28 06:40:14;;;;;;;;;;;16.10;99.90;;;;;;5022040;28;19928;-73
2022/07/28 06:42:42;;;;;;;;;;;16.10;99.90;;;;;;5006688;28;19926;-74
2022/07/28 06:45:10;;;;;;;;;;;16.20;99.90;;;;;;5017086;28;19926;-73
2022/07/28 06:47:37;;;;;;;;;;;16.30;99.90;;;;;;5016697;28;19925;-74
2022/07/28 06:50:04;;;;;;;;;;;16.40;99.90;;;;;;5009908;28;19971;-74
2022/07/28 06:52:32;;;;;;;;;;;16.50;99.90;;;;;;5024474;28;20619;-74
2022/07/28 06:54:59;;;;;;;;;;;16.60;99.90;;;;;;5012515;28;19961;-74
2022/07/28 06:57:26;;;;;;;;;;;16.70;99.90;;;;;;5020650;28;20356;-73
2022/07/28 06:59:55;;;;;;;;;;;16.80;99.90;;;;;;5010872;28;19926;-74
2022/07/28 07:02:22;;;;;;;;;;;16.90;99.90;;;;;;5022469;28;19952;-74
2022/07/28 07:04:50;;;;;;;;;;;16.90;99.90;;;;;;5009818;28;20298;-74
2022/07/28 07:07:17;;;;;;;;;;;17.00;99.90;;;;;;5023716;28;19925;-74
2022/07/28 07:09:44;;;;;;;;;;;17.20;99.90;;;;;;5017578;28;19925;-74
2022/07/28 07:12:11;;;;;;;;;;;17.30;99.90;;;;;;5004324;28;19925;-74
2022/07/28 07:14:38;;;;;;;;;;;17.30;99.90;;;;;;5011477;28;19932;-74
2022/07/28 07:17:06;;;;;;;;;;;17.40;99.90;;;;;;5007337;28;19929;-73
2022/07/28 07:19:33;;;;;;;;;;;17.50;99.90;;;;;;5018144;28;19932;-73
2022/07/28 07:21:59;;;;;;;;;;;17.60;99.90;;;;;;5009743;28;19926;-73
2022/07/28 07:24:26;;;;;;;;;;;17.60;99.90;;;;;;5006951;28;19926;-73
2022/07/28 07:26:53;;;;;;;;;;;17.70;99.90;;;;;;5018130;28;19926;-73
2022/07/28 07:29:21;;;;;;;;;;;17.70;99.90;;;;;;5005373;28;19933;-73
2022/07/28 07:31:48;;;;;;;;;;;17.80;99.90;;;;;;5010557;28;19956;-73
2022/07/28 07:34:17;;;;;;;;;;;17.90;99.90;;;;;;5004226;28;19929;-73
2022/07/28 07:36:44;;;;;;;;;;;18.00;99.90;;;;;;5022493;28;19930;-74
2022/07/28 07:39:11;;;;;;;;;;;18.10;99.90;;;;;;5023035;28;19926;-74
2022/07/28 07:41:37;;;;;;;;;;;18.10;99.90;;;;;;5010066;28;19925;-74
2022/07/28 07:44:04;;;;;;;;;;;18.10;99.90;;;;;;5009309;28;19926;-74
2022/07/28 07:46:31;;;;;;;;;;;18.20;99.90;;;;;;5009738;28;19936;-74
2022/07/28 07:48:58;;;;;;;;;;;18.30;99.90;;;;;;5063456;22;19925;-69
2022/07/28 07:51:26;;;;;;;;;;;18.40;99.90;;;;;;5025780;28;20285;-70
2022/07/28 07:53:52;;;;;;;;;;;18.50;99.90;;;;;;5033042;28;19972;-69
2022/07/28 07:56:19;;;;;;;;;;;18.60;99.90;;;;;;5030123;28;20007;-71
2022/07/28 07:58:46;;;;;;;;;;;18.70;99.90;;;;;;5022319;28;19926;-69
2022/07/28 08:01:13;;;;;;;;;;;18.80;99.90;;;;;;5001806;28;19925;-69
2022/07/28 08:03:39;;;;;;;;;;;19.00;99.90;;;;;;5004097;28;20385;-70
2022/07/28 08:06:06;;;;;;;;;;;19.00;99.90;;;;;;5004180;28;20289;-69
2022/07/28 08:08:34;;;;;;;;;;;19.10;99.90;;;;;;5003489;28;19976;-69
2022/07/28 08:11:01;;;;;;;;;;;19.20;99.90;;;;;;4999918;28;20421;-69
2022/07/28 08:13:28;;;;;;;;;;;19.20;99.90;;;;;;5005945;28;19933;-70
2022/07/28 08:15:55;;;;;;;;;;;19.30;99.90;;;;;;4999056;28;19933;-69
2022/07/28 08:18:21;;;;;;;;;;;19.30;99.90;;;;;;5005675;28;19972;-70
2022/07/28 08:20:48;;;;;;;;;;;19.40;99.90;;;;;;5016395;28;19926;-70
2022/07/28 08:23:15;;;;;;;;;;;19.40;99.90;;;;;;5018146;28;19933;-69
2022/07/28 08:25:43;;;;;;;;;;;19.50;99.90;;;;;;5005477;28;19949;-69
2022/07/28 08:28:10;;;;;;;;;;;19.60;99.90;;;;;;5000861;28;19976;-69
2022/07/28 08:30:37;;;;;;;;;;;19.70;99.90;;;;;;5005135;28;19929;-70
2022/07/28 08:33:04;;;;;;;;;;;19.70;99.90;;;;;;5000622;28;20431;-70
2022/07/28 08:35:30;;;;;;;;;;;19.80;99.90;;;;;;5013183;28;19926;-70
2022/07/28 08:37:57;;;;;;;;;;;19.80;99.90;;;;;;5000256;28;20020;-70
2022/07/28 08:40:24;;;;;;;;;;;19.80;99.90;;;;;;5004734;28;19929;-70
2022/07/28 08:42:55;;;;;;;;;;;19.90;99.90;;;;;;5003052;28;19925;-69
2022/07/28 08:45:24;;;;;;;;;;;19.90;99.90;;;;;;4998898;28;20376;-70
2022/07/28 08:47:52;;;;;;;;;;;20.00;99.90;;;;;;4999472;28;19929;-69
2022/07/28 08:50:22;;;;;;;;;;;20.00;99.90;;;;;;5010490;28;19929;-69
2022/07/28 08:52:50;;;;;;;;;;;20.20;99.90;;;;;;5020645;28;19926;-70
2022/07/28 08:55:18;;;;;;;;;;;20.20;99.90;;;;;;5001466;28;20389;-69
2022/07/28 08:57:45;;;;;;;;;;;20.40;99.90;;;;;;5005379;28;19937;-69
2022/07/28 09:00:14;;;;;;;;;;;20.40;99.90;;;;;;5010311;28;19926;-69
2022/07/28 09:02:42;;;;;;;;;;;20.50;99.90;;;;;;4999482;28;19925;-69
2022/07/28 09:05:09;;;;;;;;;;;20.60;99.90;;;;;;5000207;28;19929;-69
2022/07/28 09:07:37;;;;;;;;;;;20.70;99.90;;;;;;4997434;28;19930;-69
2022/07/28 09:10:04;;;;;;;;;;;20.80;99.90;;;;;;5003111;28;19932;-70
2022/07/28 09:12:33;;;;;;;;;;;20.80;99.90;;;;;;5017384;28;19932;-68
2022/07/28 09:15:01;;;;;;;;;;;20.80;99.90;;;;;;4998996;28;20365;-69
2022/07/28 09:17:29;;;;;;;;;;;20.80;99.90;;;;;;5005628;28;19932;-69
2022/07/28 09:19:56;;;;;;;;;;;20.90;99.90;;;;;;4999719;28;20301;-69
2022/07/28 09:22:23;;;;;;;;;;;21.10;99.90;;;;;;4997209;28;19926;-69
2022/07/28 09:24:50;;;;;;;;;;;21.20;99.90;;;;;;5000551;28;19933;-69
2022/07/28 09:27:16;;;;;;;;;;;21.40;99.90;;;;;;5017484;28;19954;-69
2022/07/28 09:29:45;;;;;;;;;;;21.50;99.90;;;;;;5004702;28;20463;-69
2022/07/28 09:32:14;;;;;;;;;;;21.60;99.90;;;;;;4999268;28;20467;-70
2022/07/28 09:34:43;;;;;;;;;;;21.80;99.90;;;;;;5006188;28;20085;-69
2022/07/28 09:37:17;;;;;;;;;;;21.80;99.90;;;;;;4999367;28;20354;-70
2022/07/28 09:39:44;;;;;;;;;;;22.00;99.90;;;;;;4994743;28;19925;-70
2022/07/28 09:42:10;;;;;;;;;;;22.10;99.90;;;;;;5005105;28;20306;-70
2022/07/28 09:44:38;;;;;;;;;;;22.30;99.90;;;;;;4999273;28;19933;-70
2022/07/28 09:47:20;;;;;;;;;;;22.40;99.90;;;;;;5004264;28;19926;-69
2022/07/28 09:49:48;;;;;;;;;;;22.50;99.90;;;;;;5016854;28;19933;-70
2022/07/28 09:52:26;;;;;;;;;;;22.60;99.90;;;;;;5003314;28;19929;-70
2022/07/28 09:54:59;;;;;;;;;;;22.70;99.90;;;;;;5013046;28;19932;-70
2022/07/28 09:57:26;;;;;;;;;;;22.80;99.90;;;;;;4998809;28;19957;-71
2022/07/28 09:59:53;;;;;;;;;;;22.90;99.90;;;;;;4994480;28;19972;-70
2022/07/28 10:02:22;;;;;;;;;;;23.00;99.90;;;;;;4999960;28;19978;-70
2022/07/28 10:04:51;;;;;;;;;;;23.30;99.90;;;;;;4996839;28;19926;-70
2022/07/28 10:07:18;;;;;;;;;;;23.40;99.90;;;;;;5004093;28;19926;-70
2022/07/28 10:09:56;;;;;;;;;;;23.50;99.90;;;;;;5000173;28;19932;-70
2022/07/28 10:12:23;;;;;;;;;;;23.60;99.90;;;;;;4990056;28;19932;-71
2022/07/28 10:14:51;;;;;;;;;;;23.60;99.90;;;;;;4988877;28;19932;-71
2022/07/28 10:17:24;;;;;;;;;;;23.70;99.90;;;;;;4996400;28;20342;-70
2022/07/28 10:19:56;;;;;;;;;;;23.70;99.90;;;;;;4999753;28;19925;-71
2022/07/28 10:22:25;;;;;;;;;;;23.90;99.90;;;;;;4998138;28;19932;-70
2022/07/28 10:24:52;;;;;;;;;;;24.20;99.90;;;;;;5001622;28;19984;-71
2022/07/28 10:27:20;;;;;;;;;;;24.30;99.90;;;;;;4997588;28;20423;-69
2022/07/28 10:29:47;;;;;;;;;;;24.30;99.90;;;;;;5003767;28;19932;-71
2022/07/28 10:32:13;;;;;;;;;;;24.50;99.90;;;;;;4999270;28;19932;-71
2022/07/28 10:34:44;;;;;;;;;;;24.70;99.90;;;;;;5003240;28;19929;-71
2022/07/28 10:37:17;;;;;;;;;;;24.80;99.90;;;;;;4996018;28;19925;-69
2022/07/28 10:39:48;;;;;;;;;;;24.90;99.90;;;;;;4997484;28;19925;-70
2022/07/28 10:42:15;;;;;;;;;;;24.90;99.90;;;;;;5008025;28;19926;-71
2022/07/28 10:44:44;;;;;;;;;;;24.90;99.90;;;;;;4998746;28;19926;-71
2022/07/28 10:47:11;;;;;;;;;;;24.90;99.90;;;;;;4998155;28;19925;-71
2022/07/28 10:49:39;;;;;;;;;;;25.20;99.90;;;;;;4999355;28;20532;-71
2022/07/28 10:52:06;;;;;;;;;;;25.20;99.90;;;;;;4998927;28;20467;-71
2022/07/28 10:54:36;;;;;;;;;;;25.30;99.90;;;;;;5002634;28;19932;-71
2022/07/28 10:57:04;;;;;;;;;;;25.30;99.90;;;;;;4999966;28;19926;-71
2022/07/28 10:59:49;;;;;;;;;;;25.40;99.90;;;;;;5000757;28;19926;-71
2022/07/28 11:02:34;;;;;;;;;;;25.50;99.90;;;;;;4995984;28;19933;-71
2022/07/28 11:05:02;;;;;;;;;;;25.60;99.90;;;;;;4997049;28;19952;-71
2022/07/28 11:07:37;;;;;;;;;;;25.80;99.90;;;;;;5001837;28;19925;-71
2022/07/28 11:10:16;;;;;;;;;;;26.00;99.90;;;;;;5024882;28;19980;-71
2022/07/28 11:12:47;;;;;;;;;;;26.30;99.90;;;;;;5012378;28;20385;-71
2022/07/28 11:15:27;;;;;;;;;;;26.50;99.90;;;;;;5001727;28;19925;-71
2022/07/28 11:18:00;;;;;;;;;;;26.70;99.90;;;;;;5012965;28;19972;-70
2022/07/28 11:20:46;;;;;;;;;;;26.90;99.90;;;;;;5023643;28;19925;-71
2022/07/28 11:23:31;;;;;;;;;;;27.10;99.90;;;;;;5002708;28;20385;-71
2022/07/28 11:26:12;;;;;;;;;;;27.60;99.90;;;;;;5002481;28;19932;-71
2022/07/28 11:28:54;;;;;;;;;;;28.10;99.90;;;;;;5002877;28;19930;-71
2022/07/28 11:31:50;;;;;;;;;;;28.50;99.90;;;;;;5000572;28;19932;-71
2022/07/28 11:34:17;;;;;;;;;;;28.50;99.90;;;;;;5015812;28;19926;-71
2022/07/28 11:36:58;;;;;;;;;;;28.80;99.90;;;;;;5013606;28;19925;-71
2022/07/28 11:39:25;;;;;;;;;;;28.80;99.90;;;;;;5000923;28;19925;-71
2022/07/28 11:41:52;;;;;;;;;;;29.00;99.90;;;;;;4998745;28;19925;-71
2022/07/28 11:44:23;;;;;;;;;;;29.90;99.90;;;;;;5002071;28;20317;-71
2022/07/28 11:46:52;;;;;;;;;;;30.00;99.90;;;;;;5000790;28;20381;-71
2022/07/28 11:49:20;;;;;;;;;;;30.00;99.90;;;;;;4992515;28;19930;-71
2022/07/28 11:52:05;;;;;;;;;;;30.70;99.90;;;;;;4997032;28;20014;-71
2022/07/28 11:54:32;;;;;;;;;;;31.20;99.90;;;;;;4985941;28;19925;-71
2022/07/28 11:57:01;;;;;;;;;;;31.30;99.90;;;;;;5003368;28;19932;-71
2022/07/28 11:59:28;;;;;;;;;;;32.40;99.60;;;;;;5011488;28;19925;-71
2022/07/28 12:01:56;;;;;;;;;;;33.70;98.40;;;;;;5006804;28;20476;-71
2022/07/28 12:04:26;;;;;;;;;;;34.60;97.90;;;;;;5008082;28;20357;-72
2022/07/28 12:06:53;;;;;;;;;;;34.90;96.50;;;;;;5018723;28;19929;-71
2022/07/28 12:09:20;;;;;;;;;;;33.90;96.70;;;;;;5003931;28;19930;-71
2022/07/28 12:11:52;;;;;;;;;;;33.10;96.50;;;;;;5003117;28;20050;-72
2022/07/28 12:14:21;;;;;;;;;;;32.60;96.90;;;;;;5004168;28;19929;-71
2022/07/28 12:16:50;;;;;;;;;;;32.50;96.90;;;;;;4996014;28;19925;-71
2022/07/28 12:19:19;;;;;;;;;;;31.80;96.50;;;;;;5001421;28;19972;-71
2022/07/28 12:21:46;;;;;;;;;;;31.50;96.70;;;;;;5003282;28;19976;-71
2022/07/28 12:24:14;;;;;;;;;;;31.40;97.60;;;;;;5002141;28;19925;-71
2022/07/28 12:26:41;;;;;;;;;;;32.40;97.40;;;;;;5014314;28;19932;-71
2022/07/28 12:29:11;;;;;;;;;;;33.80;96.70;;;;;;5009616;28;20036;-71
2022/07/28 12:31:38;;;;;;;;;;;34.40;95.90;;;;;;5009323;28;19925;-71
2022/07/28 12:34:06;;;;;;;;;;;35.00;95.90;;;;;;5002866;28;19925;-72
2022/07/28 12:36:35;;;;;;;;;;;35.70;95.00;;;;;;5016635;28;19930;-71
2022/07/28 12:39:04;;;;;;;;;;;35.00;94.70;;;;;;5006490;28;19926;-71
2022/07/28 12:41:32;;;;;;;;;;;34.50;94.60;;;;;;5007702;28;19953;-72
2022/07/28 12:44:00;;;;;;;;;;;33.90;94.80;;;;;;4999754;28;20472;-72
2022/07/28 12:46:27;;;;;;;;;;;33.30;94.20;;;;;;5000535;28;19941;-72
2022/07/28 12:48:55;;;;;;;;;;;32.80;94.40;;;;;;5016498;28;19937;-72
2022/07/28 12:51:31;;;;;;;;;;;32.40;94.60;;;;;;5003138;28;20294;-72
2022/07/28 12:54:00;;;;;;;;;;;31.70;94.00;;;;;;5011741;28;19987;-72
2022/07/28 12:56:26;;;;;;;;;;;31.50;94.80;;;;;;5004086;28;20364;-72
2022/07/28 12:59:06;;;;;;;;;;;31.30;95.00;;;;;;5003238;28;19932;-71
2022/07/28 13:01:46;;;;;;;;;;;31.00;95.10;;;;;;4987523;28;19926;-72
2022/07/28 13:04:13;;;;;;;;;;;31.00;95.50;;;;;;5007003;28;19945;-71
2022/07/28 13:06:40;;;;;;;;;;;31.10;95.20;;;;;;5010489;28;19937;-71
2022/07/28 13:09:09;;;;;;;;;;;31.00;95.60;;;;;;5002053;28;19996;-71
2022/07/28 13:11:35;;;;;;;;;;;30.90;95.60;;;;;;4999793;28;19941;-70
2022/07/28 13:14:02;;;;;;;;;;;30.80;95.90;;;;;;5001278;28;19925;-70
2022/07/28 13:16:29;;;;;;;;;;;30.40;95.80;;;;;;5002212;28;19926;-70
2022/07/28 13:18:56;;;;;;;;;;;30.40;96.50;;;;;;5001773;28;20561;-71
2022/07/28 13:21:36;;;;;;;;;;;30.20;95.80;;;;;;4997010;28;19925;-70
2022/07/28 13:24:03;;;;;;;;;;;30.10;95.90;;;;;;4997351;28;19930;-71
2022/07/28 13:26:32;;;;;;;;;;;30.10;96.40;;;;;;4993418;28;19971;-71
2022/07/28 13:28:59;;;;;;;;;;;30.50;96.10;;;;;;5006260;28;19925;-71
2022/07/28 13:31:26;;;;;;;;;;;31.10;96.40;;;;;;4993693;28;19937;-71
2022/07/28 13:33:53;;;;;;;;;;;31.30;95.60;;;;;;5005755;28;19932;-70
2022/07/28 13:36:20;;;;;;;;;;;31.40;95.30;;;;;;5010625;28;20023;-71
2022/07/28 13:38:46;;;;;;;;;;;31.70;95.00;;;;;;4986653;28;19965;-71
2022/07/28 13:41:13;;;;;;;;;;;31.70;94.60;;;;;;4994522;28;20002;-71
2022/07/28 13:43:41;;;;;;;;;;;31.80;94.80;;;;;;5011363;28;19975;-71
2022/07/28 13:46:08;;;;;;;;;;;31.70;94.80;;;;;;5009127;28;19933;-70
2022/07/28 13:48:39;;;;;;;;;;;31.50;94.70;;;;;;4994548;28;19925;-70
2022/07/28 13:51:05;;;;;;;;;;;31.40;95.10;;;;;;4993449;28;20429;-70
2022/07/28 13:53:32;;;;;;;;;;;31.20;95.50;;;;;;5003772;28;20425;-70
2022/07/28 13:55:59;;;;;;;;;;;31.00;95.10;;;;;;4994589;28;19936;-70
2022/07/28 13:58:26;;;;;;;;;;;31.00;95.40;;;;;;4992152;28;19938;-70
2022/07/28 14:00:54;;;;;;;;;;;31.10;94.80;;;;;;4991036;28;19929;-69
2022/07/28 14:03:21;;;;;;;;;;;31.50;95.70;;;;;;5010979;28;19969;-69
2022/07/28 14:05:47;;;;;;;;;;;32.00;95.20;;;;;;4991114;28;20343;-69
2022/07/28 14:08:18;;;;;;;;;;;32.40;95.20;;;;;;4994628;28;20008;-69
2022/07/28 14:10:48;;;;;;;;;;;32.90;94.30;;;;;;4991949;28;20266;-69
2022/07/28 14:13:15;;;;;;;;;;;33.10;94.20;;;;;;4987557;28;20198;-69
2022/07/28 14:15:41;;;;;;;;;;;32.80;94.50;;;;;;4995830;28;19930;-69
2022/07/28 14:18:09;;;;;;;;;;;32.30;94.50;;;;;;4997146;28;19929;-69
2022/07/28 14:20:36;;;;;;;;;;;31.80;94.20;;;;;;4993727;28;19925;-69
2022/07/28 14:23:03;;;;;;;;;;;31.10;94.50;;;;;;5003176;28;19926;-70
2022/07/28 14:25:30;;;;;;;;;;;30.20;94.80;;;;;;4995567;28;20388;-70